Amherst, Maine
Current Conditions -  °F | °C
As of 10:15 PM on Thursday 27 Nov 2014 (Local Time) from KBHB Reporting Station
Scattered Clouds Scattered Clouds  
Wind Chill: 21°   Ceiling: Unl
Heat Index: 27°   Visibility: 10mi
Dew Point: 25°   Wind: 5mph
Humidity: 93%   Direction: 360°N
Pressure: 30.04"   Gusts: NA
Location:  44.6651°N, 68.3944°W
Report Text: KBHB 280315Z AUTO 36004KT 10SM SCT028 M03/M04 A3004 RMK AO1
Loading
Personal Weather Stations






























Interactive Weather Map New forecast layout! Learn more

10-Day Weather Forecast

Advertisements
Track Severe Weather on mobile